createdAt,value
2017-09-03T00:00:11.652Z,7.27
2017-09-03T00:02:39.224Z,7.43
2017-09-03T00:05:06.852Z,8.00
2017-09-03T00:07:34.473Z,6.55
2017-09-03T00:10:03.111Z,8.47
2017-09-03T00:12:30.691Z,7.90
2017-09-03T00:14:58.312Z,7.90
2017-09-03T00:17:25.881Z,7.50
2017-09-03T00:19:53.448Z,8.40
2017-09-03T00:22:21.063Z,8.00
2017-09-03T00:24:48.683Z,8.10
2017-09-03T00:27:16.308Z,7.30
2017-09-03T00:29:43.858Z,7.27
2017-09-03T00:32:11.765Z,6.70
2017-09-03T00:34:39.349Z,7.90
2017-09-03T00:37:06.987Z,8.33
2017-09-03T00:39:34.604Z,7.80
2017-09-03T00:42:02.213Z,9.55
2017-09-03T00:44:29.969Z,8.00
2017-09-03T00:46:57.540Z,8.27
2017-09-03T00:49:25.140Z,8.40
2017-09-03T00:51:53.471Z,9.07
2017-09-03T00:54:21.409Z,8.40
2017-09-03T00:56:48.997Z,8.25
2017-09-03T00:59:16.569Z,8.00
2017-09-03T01:01:44.906Z,7.77
2017-09-03T01:04:12.485Z,8.10
2017-09-03T01:06:40.055Z,7.40
2017-09-03T01:09:07.619Z,7.47
2017-09-03T01:11:35.200Z,7.40
2017-09-03T01:14:02.772Z,7.80
2017-09-03T01:16:30.611Z,7.63
2017-09-03T01:18:58.207Z,7.60
2017-09-03T01:21:25.769Z,7.68
2017-09-03T01:23:53.356Z,8.47
2017-09-03T01:26:20.935Z,7.68
2017-09-03T01:28:48.514Z,7.00
2017-09-03T01:31:16.845Z,7.62
2017-09-03T01:33:44.421Z,8.23
2017-09-03T01:36:12.002Z,7.97
2017-09-03T01:38:40.620Z,7.33
2017-09-03T01:41:08.200Z,8.17
2017-09-03T01:43:35.765Z,7.40
2017-09-03T01:46:03.372Z,7.50
2017-09-03T01:48:30.943Z,7.93
2017-09-03T01:50:58.521Z,8.70
2017-09-03T01:53:26.085Z,8.17
2017-09-03T01:55:53.660Z,8.00
2017-09-03T01:58:21.217Z,7.57
2017-09-03T02:00:49.090Z,7.73
2017-09-03T02:03:16.756Z,8.63
2017-09-03T02:05:44.331Z,7.23
2017-09-03T02:08:12.671Z,8.20
2017-09-03T02:10:40.218Z,7.50
2017-09-03T02:13:07.811Z,6.50
2017-09-03T02:15:36.876Z,7.53
2017-09-03T02:18:04.459Z,7.70
2017-09-03T02:20:32.015Z,7.20
2017-09-03T02:22:59.875Z,6.63
2017-09-03T02:25:27.458Z,7.47
2017-09-03T02:27:55.029Z,6.97
2017-09-03T02:30:22.620Z,7.03
2017-09-03T02:32:50.201Z,8.35
2017-09-03T02:35:17.827Z,6.90
2017-09-03T02:37:45.400Z,6.97
2017-09-03T02:40:12.985Z,7.10
2017-09-03T02:42:40.556Z,6.67
2017-09-03T02:45:08.165Z,7.60
2017-09-03T02:47:36.531Z,6.55
2017-09-03T02:50:05.166Z,7.47
2017-09-03T02:52:32.735Z,7.10
2017-09-03T02:55:00.283Z,8.00
2017-09-03T02:57:27.885Z,7.87
2017-09-03T02:59:56.243Z,6.43
2017-09-03T03:02:23.819Z,7.47
2017-09-03T03:04:52.160Z,6.83
2017-09-03T03:07:19.754Z,8.37
2017-09-03T03:09:47.345Z,7.93
2017-09-03T03:12:15.204Z,9.13
2017-09-03T03:14:42.798Z,8.97
2017-09-03T03:17:10.390Z,7.87
2017-09-03T03:19:37.963Z,8.03
2017-09-03T03:22:05.552Z,8.73
2017-09-03T03:24:33.141Z,9.02
2017-09-03T03:27:00.704Z,9.10
2017-09-03T03:29:28.286Z,9.95
2017-09-03T03:31:55.866Z,9.20
2017-09-03T03:34:23.444Z,9.97
2017-09-03T03:36:51.005Z,10.23
2017-09-03T03:39:18.908Z,10.53
2017-09-03T03:41:46.483Z,11.65
2017-09-03T03:44:14.066Z,11.97
2017-09-03T03:46:42.407Z,10.63
2017-09-03T03:49:09.985Z,12.17
2017-09-03T03:51:37.553Z,12.57
2017-09-03T03:54:05.955Z,12.10
2017-09-03T03:56:33.544Z,12.50
2017-09-03T03:59:01.154Z,13.67
2017-09-03T04:01:29.503Z,14.60
2017-09-03T04:03:57.090Z,12.77
2017-09-03T04:06:25.844Z,14.40
2017-09-03T04:08:53.412Z,15.83
2017-09-03T04:11:20.984Z,14.10
2017-09-03T04:13:48.558Z,15.20
2017-09-03T04:16:16.116Z,15.95
2017-09-03T04:18:43.693Z,16.47
2017-09-03T04:21:11.243Z,15.55
2017-09-03T04:23:38.834Z,15.63
2017-09-03T04:26:06.455Z,17.08
2017-09-03T04:28:35.069Z,14.93
2017-09-03T04:31:02.645Z,16.30
2017-09-03T04:33:30.216Z,16.03
2017-09-03T04:35:57.794Z,16.10
2017-09-03T04:38:25.370Z,17.50
2017-09-03T04:40:52.937Z,17.13
2017-09-03T04:43:20.728Z,17.17
2017-09-03T04:45:48.353Z,16.62
2017-09-03T04:48:16.706Z,18.35
2017-09-03T04:50:44.535Z,15.17
2017-09-03T04:53:12.871Z,17.53
2017-09-03T04:55:40.441Z,17.73
2017-09-03T04:58:08.858Z,17.37
2017-09-03T05:00:36.577Z,16.10
2017-09-03T05:03:04.190Z,16.53
2017-09-03T05:05:31.758Z,17.97
2017-09-03T05:07:59.355Z,15.98
2017-09-03T05:10:27.688Z,14.63
2017-09-03T05:12:55.278Z,16.12
2017-09-03T05:15:23.628Z,15.83
2017-09-03T05:17:51.589Z,18.33
2017-09-03T05:20:19.151Z,16.87
2017-09-03T05:22:46.761Z,17.80
2017-09-03T05:25:14.379Z,16.43
2017-09-03T05:27:41.981Z,18.17
2017-09-03T05:30:09.583Z,17.00
2017-09-03T05:32:37.174Z,17.23
2017-09-03T05:35:05.537Z,17.75
2017-09-03T05:37:33.116Z,18.25
2017-09-03T05:40:00.701Z,17.73
2017-09-03T05:42:28.294Z,17.20
2017-09-03T05:44:55.905Z,16.95
2017-09-03T05:47:23.467Z,17.77
2017-09-03T05:49:51.807Z,17.60
2017-09-03T05:52:19.448Z,17.20
2017-09-03T05:54:47.086Z,16.63
2017-09-03T05:57:14.659Z,16.70
2017-09-03T05:59:42.245Z,16.00
2017-09-03T06:02:10.107Z,17.80
2017-09-03T06:04:37.708Z,16.00
2017-09-03T06:07:05.266Z,16.33
2017-09-03T06:09:32.859Z,16.52
2017-09-03T06:12:00.435Z,15.53
2017-09-03T06:14:28.028Z,16.30
2017-09-03T06:16:57.300Z,17.00
2017-09-03T06:19:24.918Z,17.67
2017-09-03T06:21:52.487Z,16.93
2017-09-03T06:24:20.380Z,19.40
2017-09-03T06:26:47.964Z,17.30
2017-09-03T06:29:15.632Z,16.93
2017-09-03T06:31:43.214Z,16.80
2017-09-03T06:34:11.590Z,19.30
2017-09-03T06:36:39.185Z,17.07
2017-09-03T06:39:06.784Z,18.17
2017-09-03T06:41:34.391Z,16.03
2017-09-03T06:44:01.962Z,16.30
2017-09-03T06:46:29.575Z,16.30
2017-09-03T06:48:57.936Z,17.77
2017-09-03T06:51:25.888Z,15.03
2017-09-03T06:53:53.454Z,16.13
2017-09-03T06:56:21.042Z,16.60
2017-09-03T06:58:48.635Z,16.93
2017-09-03T07:01:16.211Z,13.93
2017-09-03T07:03:43.800Z,15.20
2017-09-03T07:06:11.423Z,16.03
2017-09-03T07:08:38.995Z,15.53
2017-09-03T07:11:06.620Z,14.60
2017-09-03T07:13:35.157Z,14.73
2017-09-03T07:16:02.774Z,14.60
2017-09-03T07:18:30.434Z,14.60
2017-09-03T07:20:58.060Z,14.50
2017-09-03T07:23:25.686Z,14.10
2017-09-03T07:25:54.074Z,13.85
2017-09-03T07:28:21.653Z,12.53
2017-09-03T07:30:49.280Z,13.53
2017-09-03T07:33:16.944Z,12.60
2017-09-03T07:35:44.552Z,14.23
2017-09-03T07:38:12.913Z,12.23
2017-09-03T07:40:41.253Z,13.25
2017-09-03T07:43:09.735Z,13.57
2017-09-03T07:45:37.303Z,13.57
2017-09-03T07:48:04.903Z,12.63
2017-09-03T07:50:32.535Z,12.60
2017-09-03T07:53:00.897Z,11.90
2017-09-03T07:55:28.487Z,12.97
2017-09-03T07:57:56.833Z,12.53
2017-09-03T08:00:24.488Z,11.83
2017-09-03T08:02:52.217Z,11.03
2017-09-03T08:05:19.825Z,10.77
2017-09-03T08:07:47.785Z,12.07
2017-09-03T08:10:15.347Z,11.27
2017-09-03T08:12:42.955Z,11.23
2017-09-03T08:15:10.717Z,10.30
2017-09-03T08:17:38.298Z,9.93
2017-09-03T08:20:05.882Z,10.05
2017-09-03T08:22:34.249Z,10.20
2017-09-03T08:25:01.881Z,9.70
2017-09-03T08:27:29.489Z,9.13
2017-09-03T08:29:57.117Z,9.77
2017-09-03T08:32:24.731Z,10.20
2017-09-03T08:34:52.410Z,10.17
2017-09-03T08:37:20.754Z,9.50
2017-09-03T08:39:48.413Z,9.27
2017-09-03T08:42:16.040Z,9.80
2017-09-03T08:44:43.717Z,10.30
2017-09-03T08:47:11.331Z,8.95
2017-09-03T08:49:38.981Z,9.83
2017-09-03T08:52:07.313Z,8.63
2017-09-03T08:54:34.923Z,10.25
2017-09-03T08:57:02.484Z,9.90
2017-09-03T08:59:30.057Z,8.50
2017-09-03T09:01:57.638Z,9.03
2017-09-03T09:04:26.001Z,8.43
2017-09-03T09:06:53.687Z,7.83
2017-09-03T09:09:21.261Z,6.95
2017-09-03T09:11:48.827Z,7.57
2017-09-03T09:14:16.423Z,6.57
2017-09-03T09:16:44.581Z,8.00
2017-09-03T09:19:12.936Z,7.90
2017-09-03T09:21:40.552Z,7.77
2017-09-03T09:24:08.155Z,8.10
2017-09-03T09:26:35.760Z,8.17
2017-09-03T09:29:03.368Z,9.03
2017-09-03T09:31:30.948Z,8.80
2017-09-03T09:33:59.299Z,7.70
2017-09-03T09:36:26.898Z,7.70
2017-09-03T09:38:55.542Z,7.43
2017-09-03T09:41:23.164Z,7.00
2017-09-03T09:43:50.790Z,7.70
2017-09-03T09:46:18.393Z,7.73
2017-09-03T09:48:45.981Z,8.30
2017-09-03T09:51:13.573Z,7.20
2017-09-03T09:53:41.174Z,7.70
2017-09-03T09:56:08.763Z,7.63
2017-09-03T09:58:36.394Z,7.75
2017-09-03T10:01:04.015Z,6.90
2017-09-03T10:03:31.597Z,6.63
2017-09-03T10:05:59.219Z,5.70
2017-09-03T10:08:26.784Z,6.13
2017-09-03T10:10:55.117Z,6.53
2017-09-03T10:13:22.695Z,6.70
2017-09-03T10:15:50.291Z,6.30
2017-09-03T10:18:17.904Z,5.70
2017-09-03T10:20:45.838Z,5.55
2017-09-03T10:23:13.413Z,5.23
2017-09-03T10:25:40.996Z,5.87
2017-09-03T10:28:08.572Z,5.93
2017-09-03T10:30:36.196Z,6.35
2017-09-03T10:33:03.756Z,7.87
2017-09-03T10:35:31.406Z,8.95
2017-09-03T10:37:58.985Z,8.10
2017-09-03T10:40:26.568Z,8.40
2017-09-03T10:42:54.168Z,10.10
2017-09-03T10:45:21.762Z,9.33
2017-09-03T10:47:49.414Z,9.23
2017-09-03T10:50:17.067Z,8.87
2017-09-03T10:52:44.690Z,10.47
2017-09-03T10:55:12.280Z,10.70
2017-09-03T10:57:39.849Z,10.00
2017-09-03T11:00:07.430Z,9.53
2017-09-03T11:02:35.045Z,8.77
2017-09-03T11:05:02.661Z,9.13
2017-09-03T11:07:30.230Z,8.63
2017-09-03T11:09:57.800Z,9.27
2017-09-03T11:12:25.407Z,7.15
2017-09-03T11:14:52.984Z,8.07
2017-09-03T11:17:20.611Z,7.60
2017-09-03T11:19:48.206Z,8.13
2017-09-03T11:22:15.821Z,6.80
2017-09-03T11:24:43.406Z,6.80
2017-09-03T11:27:10.979Z,6.47
2017-09-03T11:29:38.542Z,6.77
2017-09-03T11:32:06.124Z,7.30
2017-09-03T11:34:33.710Z,5.63
2017-09-03T11:37:01.299Z,5.20
2017-09-03T11:39:28.884Z,5.40
2017-09-03T11:41:56.466Z,5.80
2017-09-03T11:44:24.851Z,5.47
2017-09-03T11:46:52.430Z,6.07
2017-09-03T11:49:20.003Z,5.87
2017-09-03T11:51:47.781Z,5.30
2017-09-03T11:54:15.422Z,5.70
2017-09-03T11:56:43.014Z,4.80
2017-09-03T11:59:10.594Z,4.30
2017-09-03T12:01:38.175Z,4.90
2017-09-03T12:04:05.740Z,4.05
2017-09-03T12:06:33.311Z,4.10
2017-09-03T12:09:00.885Z,4.03
2017-09-03T12:11:28.472Z,3.63
2017-09-03T12:13:56.031Z,4.13
2017-09-03T12:16:23.613Z,4.27
2017-09-03T12:18:51.196Z,3.90
2017-09-03T12:21:18.775Z,3.10
2017-09-03T12:23:46.329Z,3.43
2017-09-03T12:26:13.899Z,3.63
2017-09-03T12:28:41.456Z,3.53
2017-09-03T12:31:09.031Z,3.33
2017-09-03T12:33:36.631Z,2.33
2017-09-03T12:36:04.218Z,2.30
2017-09-03T12:38:31.798Z,2.40
2017-09-03T12:40:59.387Z,2.27
2017-09-03T12:43:26.969Z,2.13
2017-09-03T12:45:55.340Z,2.57
2017-09-03T12:48:23.721Z,2.53
2017-09-03T12:50:51.296Z,2.63
2017-09-03T12:53:19.633Z,3.67
2017-09-03T12:55:47.197Z,2.60
2017-09-03T12:58:14.820Z,3.37
2017-09-03T13:00:42.493Z,3.47
2017-09-03T13:03:10.136Z,4.60
2017-09-03T13:05:37.736Z,4.67
2017-09-03T13:08:05.348Z,4.40
2017-09-03T13:10:32.916Z,5.20
2017-09-03T13:13:00.522Z,5.30
2017-09-03T13:15:28.103Z,5.90
2017-09-03T13:17:55.699Z,5.53
2017-09-03T13:20:23.310Z,6.53
2017-09-03T13:22:50.909Z,5.20
2017-09-03T13:25:18.507Z,5.50
2017-09-03T13:27:46.115Z,5.57
2017-09-03T13:30:13.704Z,6.00
2017-09-03T13:32:41.299Z,6.50
2017-09-03T13:35:08.923Z,5.67
2017-09-03T13:37:36.515Z,5.70
2017-09-03T13:40:04.087Z,5.80
2017-09-03T13:42:32.437Z,5.90
2017-09-03T13:45:00.070Z,5.80
2017-09-03T13:47:27.662Z,4.80
2017-09-03T13:49:55.227Z,4.30
2017-09-03T13:52:22.815Z,4.43
2017-09-03T13:54:51.155Z,4.03
2017-09-03T13:57:18.747Z,3.77
2017-09-03T13:59:47.112Z,3.77
2017-09-03T14:02:15.510Z,3.83
2017-09-03T14:04:43.875Z,4.30
2017-09-03T14:07:11.447Z,4.50
2017-09-03T14:09:39.027Z,4.50
2017-09-03T14:12:06.654Z,3.78
2017-09-03T14:14:34.310Z,3.77
2017-09-03T14:17:02.672Z,3.80
2017-09-03T14:19:30.289Z,4.00
2017-09-03T14:21:57.868Z,5.10
2017-09-03T14:24:25.499Z,5.63
2017-09-03T14:26:53.151Z,5.10
2017-09-03T14:29:20.756Z,5.30
2017-09-03T14:31:48.405Z,5.70
2017-09-03T14:34:15.994Z,5.83
2017-09-03T14:36:43.599Z,6.00
2017-09-03T14:39:11.178Z,5.53
2017-09-03T14:41:38.764Z,6.65
2017-09-03T14:44:06.343Z,6.50
2017-09-03T14:46:34.716Z,10.15
2017-09-03T14:49:02.324Z,7.10
2017-09-03T14:51:30.028Z,5.73
2017-09-03T14:53:57.692Z,5.33
2017-09-03T14:56:25.280Z,5.40
2017-09-03T14:58:52.944Z,6.33
2017-09-03T15:01:20.571Z,4.50
2017-09-03T15:03:48.198Z,4.30
2017-09-03T15:06:15.793Z,12.43
2017-09-03T15:08:43.684Z,5.10
2017-09-03T15:11:11.320Z,16.70
2017-09-03T15:13:38.912Z,3.20
2017-09-03T15:16:06.529Z,3.47
2017-09-03T15:18:34.152Z,8.87
2017-09-03T15:21:01.838Z,3.93
2017-09-03T15:23:29.412Z,3.67
2017-09-03T15:25:57.070Z,4.20
2017-09-03T15:28:24.643Z,3.83
2017-09-03T15:30:52.254Z,10.30
2017-09-03T15:33:20.013Z,4.50
2017-09-03T15:35:47.592Z,5.80
2017-09-03T15:38:15.152Z,3.37
2017-09-03T15:40:43.220Z,2.50
2017-09-03T15:43:10.796Z,3.00
2017-09-03T15:45:38.359Z,3.40
2017-09-03T15:48:05.952Z,6.18
2017-09-03T15:50:34.291Z,5.20
2017-09-03T15:53:01.919Z,3.00
2017-09-03T15:55:29.493Z,4.80
2017-09-03T15:57:57.067Z,4.50
2017-09-03T16:00:24.704Z,3.20
2017-09-03T16:02:52.585Z,2.90
2017-09-03T16:05:20.213Z,3.10
2017-09-03T16:07:47.850Z,2.55
2017-09-03T16:10:15.463Z,2.17
2017-09-03T16:12:43.075Z,2.97
2017-09-03T16:15:10.687Z,2.80
2017-09-03T16:17:38.285Z,3.27
2017-09-03T16:20:05.903Z,3.20
2017-09-03T16:22:33.496Z,2.70
2017-09-03T16:25:01.117Z,4.28
2017-09-03T16:27:28.685Z,6.95
2017-09-03T16:29:56.284Z,3.90
2017-09-03T16:32:23.866Z,2.50
2017-09-03T16:34:51.539Z,3.00
2017-09-03T16:37:19.167Z,2.63
2017-09-03T16:39:46.774Z,2.37
2017-09-03T16:42:14.339Z,2.00
2017-09-03T16:44:42.210Z,2.37
2017-09-03T16:47:09.776Z,2.30
2017-09-03T16:49:38.144Z,2.30
2017-09-03T16:52:06.520Z,2.37
2017-09-03T16:54:34.106Z,2.77
2017-09-03T16:57:01.701Z,3.20
2017-09-03T16:59:29.300Z,2.85
2017-09-03T17:01:56.898Z,3.40
2017-09-03T17:04:24.542Z,2.40
2017-09-03T17:06:53.796Z,3.10
2017-09-03T17:09:21.383Z,3.40
2017-09-03T17:11:49.249Z,3.00
2017-09-03T17:14:16.834Z,2.90
2017-09-03T17:16:44.422Z,3.03
2017-09-03T17:19:12.046Z,3.60
2017-09-03T17:21:40.461Z,3.55
2017-09-03T17:24:08.059Z,3.47
2017-09-03T17:26:35.676Z,3.40
2017-09-03T17:29:03.358Z,2.65
2017-09-03T17:31:41.848Z,2.65
2017-09-03T17:34:09.450Z,3.53
2017-09-03T17:36:42.552Z,3.05
2017-09-03T17:39:10.142Z,3.03
2017-09-03T17:41:41.178Z,3.10
2017-09-03T17:44:09.568Z,2.97
2017-09-03T17:46:49.028Z,4.07
2017-09-03T17:49:16.918Z,4.00
2017-09-03T17:51:44.503Z,3.17
2017-09-03T17:54:12.282Z,3.37
2017-09-03T17:56:39.899Z,3.20
2017-09-03T17:59:08.477Z,3.17
2017-09-03T18:01:36.064Z,2.97
2017-09-03T18:04:03.649Z,3.20
2017-09-03T18:06:31.225Z,3.03
2017-09-03T18:08:58.793Z,3.40
2017-09-03T18:11:26.380Z,3.10
2017-09-03T18:13:56.438Z,3.20
2017-09-03T18:16:23.992Z,3.30
2017-09-03T18:18:51.574Z,3.60
2017-09-03T18:21:19.165Z,6.43
2017-09-03T18:23:46.774Z,3.60
2017-09-03T18:26:14.403Z,3.40
2017-09-03T18:28:44.623Z,3.73
2017-09-03T18:31:12.584Z,5.20
2017-09-03T18:33:40.520Z,4.23
2017-09-03T18:36:08.856Z,6.80
2017-09-03T18:38:47.574Z,3.40
2017-09-03T18:41:15.648Z,3.87
2017-09-03T18:43:43.606Z,3.47
2017-09-03T18:46:16.011Z,3.60
2017-09-03T18:48:43.707Z,4.53
2017-09-03T18:51:16.188Z,5.30
2017-09-03T18:53:44.596Z,4.32
2017-09-03T18:56:12.958Z,4.40
2017-09-03T19:01:39.342Z,4.37
2017-09-03T19:04:07.307Z,4.15
2017-09-03T19:06:36.779Z,5.17
2017-09-03T19:09:04.403Z,4.63
2017-09-03T19:11:32.771Z,5.40
2017-09-03T19:14:01.258Z,5.32
2017-09-03T19:16:29.162Z,4.37
2017-09-03T19:18:56.770Z,5.23
2017-09-03T19:21:24.381Z,6.27
2017-09-03T19:23:51.996Z,10.87
2017-09-03T19:26:20.723Z,9.10
2017-09-03T19:28:48.415Z,8.00
2017-09-03T19:31:16.057Z,9.35
2017-09-03T19:33:44.795Z,7.60
2017-09-03T19:36:13.143Z,7.97
2017-09-03T19:38:43.136Z,8.70
2017-09-03T19:41:10.731Z,9.20
2017-09-03T19:43:38.307Z,9.85
2017-09-03T19:46:05.907Z,8.87
2017-09-03T19:48:33.520Z,10.00
2017-09-03T19:51:01.109Z,9.20
2017-09-03T19:53:28.720Z,8.80
2017-09-03T19:55:56.619Z,7.68
2017-09-03T19:58:24.206Z,6.17
2017-09-03T20:00:51.791Z,8.20
2017-09-03T20:03:19.564Z,8.03
2017-09-03T20:05:47.135Z,7.17
2017-09-03T20:08:14.730Z,7.77
2017-09-03T20:10:42.303Z,8.43
2017-09-03T20:13:10.232Z,7.43
2017-09-03T20:15:37.833Z,7.85
2017-09-03T20:18:05.403Z,7.70
2017-09-03T20:20:32.995Z,7.70
2017-09-03T20:23:01.329Z,7.00
2017-09-03T20:25:28.925Z,7.12
2017-09-03T20:27:56.517Z,6.83
2017-09-03T20:30:24.113Z,6.87
2017-09-03T20:32:51.692Z,7.18
2017-09-03T20:35:19.644Z,6.50
2017-09-03T20:37:48.014Z,7.23
2017-09-03T20:40:15.569Z,6.80
2017-09-03T20:42:43.155Z,7.60
2017-09-03T20:45:10.721Z,7.63
2017-09-03T20:47:38.322Z,7.60
2017-09-03T20:50:05.870Z,7.33
2017-09-03T20:52:33.498Z,7.30
2017-09-03T20:55:01.134Z,7.03
2017-09-03T20:57:28.732Z,7.78
2017-09-03T20:59:56.336Z,5.87
2017-09-03T21:02:24.238Z,5.70
2017-09-03T21:04:51.820Z,5.77
2017-09-03T21:07:19.386Z,6.27
2017-09-03T21:09:47.001Z,5.43
2017-09-03T21:12:14.587Z,6.00
2017-09-03T21:14:42.182Z,4.43
2017-09-03T21:17:09.783Z,5.55
2017-09-03T21:19:37.376Z,5.80
2017-09-03T21:22:04.958Z,5.23
2017-09-03T21:24:33.333Z,5.47
2017-09-03T21:27:00.907Z,4.10
2017-09-03T21:29:28.762Z,4.50
2017-09-03T21:31:57.105Z,4.40
2017-09-03T21:34:24.693Z,4.37
2017-09-03T21:36:52.285Z,4.70
2017-09-03T21:39:19.864Z,4.13
2017-09-03T21:41:47.468Z,4.80
2017-09-03T21:44:15.809Z,5.30
2017-09-03T21:46:43.390Z,4.57
2017-09-03T21:49:11.736Z,4.40
2017-09-03T21:51:39.688Z,4.50
2017-09-03T21:54:07.352Z,4.53
2017-09-03T21:56:34.966Z,4.47
2017-09-03T21:59:02.603Z,5.00
2017-09-03T22:01:30.230Z,4.17
2017-09-03T22:03:57.833Z,5.33
2017-09-03T22:06:25.465Z,5.10
2017-09-03T22:08:53.051Z,4.73
2017-09-03T22:11:20.666Z,5.57
2017-09-03T22:13:48.242Z,4.20
2017-09-03T22:16:15.855Z,4.53
2017-09-03T22:18:43.807Z,5.47
2017-09-03T22:21:11.418Z,4.80
2017-09-03T22:23:38.988Z,4.60
2017-09-03T22:26:06.573Z,5.27
2017-09-03T22:28:34.124Z,6.43
2017-09-03T22:31:01.719Z,4.60
2017-09-03T22:33:30.039Z,4.90
2017-09-03T22:35:57.610Z,5.30
2017-09-03T22:38:25.169Z,4.17
2017-09-03T22:40:52.756Z,4.70
2017-09-03T22:43:20.373Z,5.17
2017-09-03T22:45:48.242Z,4.33
2017-09-03T22:48:16.990Z,5.45
2017-09-03T22:50:45.313Z,4.53
2017-09-03T22:53:12.907Z,4.93
2017-09-03T22:55:40.518Z,5.07
2017-09-03T22:58:08.245Z,5.10
2017-09-03T23:00:35.810Z,5.13
2017-09-03T23:03:04.141Z,4.90
2017-09-03T23:05:31.719Z,5.07
2017-09-03T23:07:59.354Z,4.60
2017-09-03T23:10:26.947Z,4.87
2017-09-03T23:12:54.597Z,5.30
2017-09-03T23:15:22.157Z,5.35
2017-09-03T23:17:49.741Z,4.83
2017-09-03T23:20:17.346Z,4.55
2017-09-03T23:22:44.910Z,6.03
2017-09-03T23:25:12.499Z,5.40
2017-09-03T23:27:40.051Z,5.00
2017-09-03T23:30:07.620Z,4.50
2017-09-03T23:32:35.959Z,4.60
2017-09-03T23:35:03.827Z,5.43
2017-09-03T23:37:31.397Z,5.07
2017-09-03T23:39:58.979Z,5.07
2017-09-03T23:42:27.356Z,4.80
2017-09-03T23:44:54.939Z,4.70
2017-09-03T23:47:22.508Z,4.53
2017-09-03T23:49:50.059Z,5.10
2017-09-03T23:52:17.619Z,5.37
2017-09-03T23:54:45.172Z,4.80
2017-09-03T23:57:12.739Z,4.80
2017-09-03T23:59:40.309Z,4.50
